sensor_id;sensor_type;location;lat;lon;timestamp;P1;durP1;ratioP1;P2;durP2;ratioP2
16957;SDS011;8595;52.542;11.974;2023-05-16T00:01:55;11.00;;;9.80;;
16957;SDS011;8595;52.542;11.974;2023-05-16T00:04:22;16.77;;;10.95;;
16957;SDS011;8595;52.542;11.974;2023-05-16T00:06:50;11.95;;;10.07;;
16957;SDS011;8595;52.542;11.974;2023-05-16T00:09:17;15.40;;;10.45;;
16957;SDS011;8595;52.542;11.974;2023-05-16T00:11:44;13.40;;;11.13;;
16957;SDS011;8595;52.542;11.974;2023-05-16T00:14:12;17.33;;;10.60;;
16957;SDS011;8595;52.542;11.974;2023-05-16T00:16:39;13.88;;;11.80;;
16957;SDS011;8595;52.542;11.974;2023-05-16T00:19:06;12.80;;;10.93;;
16957;SDS011;8595;52.542;11.974;2023-05-16T00:21:34;14.50;;;11.00;;
16957;SDS011;8595;52.542;11.974;2023-05-16T00:24:02;15.57;;;11.13;;
16957;SDS011;8595;52.542;11.974;2023-05-16T00:26:29;13.05;;;11.65;;
16957;SDS011;8595;52.542;11.974;2023-05-16T00:28:56;13.73;;;10.52;;
16957;SDS011;8595;52.542;11.974;2023-05-16T00:31:24;13.40;;;11.52;;
16957;SDS011;8595;52.542;11.974;2023-05-16T00:33:54;14.65;;;12.32;;
16957;SDS011;8595;52.542;11.974;2023-05-16T00:36:22;18.35;;;13.43;;
16957;SDS011;8595;52.542;11.974;2023-05-16T00:38:50;15.23;;;13.18;;
16957;SDS011;8595;52.542;11.974;2023-05-16T00:41:18;16.23;;;13.38;;
16957;SDS011;8595;52.542;11.974;2023-05-16T00:43:45;18.17;;;13.85;;
16957;SDS011;8595;52.542;11.974;2023-05-16T00:46:12;18.67;;;14.77;;
16957;SDS011;8595;52.542;11.974;2023-05-16T00:48:39;17.52;;;14.65;;
16957;SDS011;8595;52.542;11.974;2023-05-16T00:51:06;19.77;;;14.70;;
16957;SDS011;8595;52.542;11.974;2023-05-16T00:53:33;24.60;;;16.92;;
16957;SDS011;8595;52.542;11.974;2023-05-16T00:56:00;19.48;;;15.07;;
16957;SDS011;8595;52.542;11.974;2023-05-16T00:58:29;18.75;;;14.85;;
16957;SDS011;8595;52.542;11.974;2023-05-16T01:00:58;20.20;;;14.73;;
16957;SDS011;8595;52.542;11.974;2023-05-16T01:03:26;20.85;;;15.65;;
16957;SDS011;8595;52.542;11.974;2023-05-16T01:05:53;21.60;;;16.10;;
16957;SDS011;8595;52.542;11.974;2023-05-16T01:08:20;19.55;;;15.70;;
16957;SDS011;8595;52.542;11.974;2023-05-16T01:10:48;22.05;;;15.82;;
16957;SDS011;8595;52.542;11.974;2023-05-16T01:13:21;19.77;;;16.23;;
16957;SDS011;8595;52.542;11.974;2023-05-16T01:15:59;20.30;;;15.93;;
16957;SDS011;8595;52.542;11.974;2023-05-16T01:18:32;18.88;;;16.35;;
16957;SDS011;8595;52.542;11.974;2023-05-16T01:21:08;21.15;;;14.80;;
16957;SDS011;8595;52.542;11.974;2023-05-16T01:23:46;23.25;;;16.13;;
16957;SDS011;8595;52.542;11.974;2023-05-16T01:26:20;18.88;;;15.95;;
16957;SDS011;8595;52.542;11.974;2023-05-16T01:28:49;22.95;;;15.77;;
16957;SDS011;8595;52.542;11.974;2023-05-16T01:31:17;20.85;;;17.48;;
16957;SDS011;8595;52.542;11.974;2023-05-16T01:33:45;21.42;;;16.02;;
16957;SDS011;8595;52.542;11.974;2023-05-16T01:36:15;21.60;;;15.77;;
16957;SDS011;8595;52.542;11.974;2023-05-16T01:38:50;20.33;;;15.85;;
16957;SDS011;8595;52.542;11.974;2023-05-16T01:41:27;19.52;;;16.55;;
16957;SDS011;8595;52.542;11.974;2023-05-16T01:44:06;16.63;;;14.82;;
16957;SDS011;8595;52.542;11.974;2023-05-16T01:46:37;18.40;;;14.32;;
16957;SDS011;8595;52.542;11.974;2023-05-16T01:49:09;18.50;;;14.85;;
16957;SDS011;8595;52.542;11.974;2023-05-16T01:51:41;21.70;;;14.20;;
16957;SDS011;8595;52.542;11.974;2023-05-16T01:54:14;18.77;;;13.90;;
16957;SDS011;8595;52.542;11.974;2023-05-16T01:56:46;20.70;;;13.57;;
16957;SDS011;8595;52.542;11.974;2023-05-16T01:59:19;15.68;;;12.38;;
16957;SDS011;8595;52.542;11.974;2023-05-16T02:01:47;21.40;;;12.15;;
16957;SDS011;8595;52.542;11.974;2023-05-16T02:04:14;17.38;;;11.65;;
16957;SDS011;8595;52.542;11.974;2023-05-16T02:06:40;15.88;;;12.52;;
16957;SDS011;8595;52.542;11.974;2023-05-16T02:09:07;12.65;;;10.55;;
16957;SDS011;8595;52.542;11.974;2023-05-16T02:11:34;11.57;;;9.40;;
16957;SDS011;8595;52.542;11.974;2023-05-16T02:14:02;13.55;;;9.95;;
16957;SDS011;8595;52.542;11.974;2023-05-16T02:16:29;9.10;;;8.18;;
16957;SDS011;8595;52.542;11.974;2023-05-16T02:18:56;12.05;;;9.13;;
16957;SDS011;8595;52.542;11.974;2023-05-16T02:21:22;12.85;;;9.88;;
16957;SDS011;8595;52.542;11.974;2023-05-16T02:23:49;13.73;;;9.40;;
16957;SDS011;8595;52.542;11.974;2023-05-16T02:26:16;15.98;;;9.63;;
16957;SDS011;8595;52.542;11.974;2023-05-16T02:28:42;11.88;;;9.35;;
16957;SDS011;8595;52.542;11.974;2023-05-16T02:31:11;11.45;;;8.60;;
16957;SDS011;8595;52.542;11.974;2023-05-16T02:33:37;11.30;;;9.13;;
16957;SDS011;8595;52.542;11.974;2023-05-16T02:36:05;15.50;;;8.98;;
16957;SDS011;8595;52.542;11.974;2023-05-16T02:38:32;12.45;;;8.15;;
16957;SDS011;8595;52.542;11.974;2023-05-16T02:40:59;8.40;;;7.60;;
16957;SDS011;8595;52.542;11.974;2023-05-16T02:43:26;10.60;;;7.78;;
16957;SDS011;8595;52.542;11.974;2023-05-16T02:45:53;11.48;;;8.18;;
16957;SDS011;8595;52.542;11.974;2023-05-16T02:48:21;14.73;;;8.02;;
16957;SDS011;8595;52.542;11.974;2023-05-16T02:50:48;9.52;;;7.45;;
16957;SDS011;8595;52.542;11.974;2023-05-16T02:53:14;13.35;;;7.43;;
16957;SDS011;8595;52.542;11.974;2023-05-16T02:55:41;9.65;;;7.25;;
16957;SDS011;8595;52.542;11.974;2023-05-16T02:58:08;14.02;;;8.20;;
16957;SDS011;8595;52.542;11.974;2023-05-16T03:00:35;11.48;;;7.18;;
16957;SDS011;8595;52.542;11.974;2023-05-16T03:03:01;9.77;;;7.28;;
16957;SDS011;8595;52.542;11.974;2023-05-16T03:05:30;9.80;;;7.75;;
16957;SDS011;8595;52.542;11.974;2023-05-16T03:07:56;8.05;;;6.50;;
16957;SDS011;8595;52.542;11.974;2023-05-16T03:10:23;10.13;;;7.05;;
16957;SDS011;8595;52.542;11.974;2023-05-16T03:12:50;10.13;;;7.38;;
16957;SDS011;8595;52.542;11.974;2023-05-16T03:15:17;10.60;;;7.55;;
16957;SDS011;8595;52.542;11.974;2023-05-16T03:17:44;9.57;;;6.43;;
16957;SDS011;8595;52.542;11.974;2023-05-16T03:20:11;11.35;;;6.50;;
16957;SDS011;8595;52.542;11.974;2023-05-16T03:22:39;11.93;;;6.90;;
16957;SDS011;8595;52.542;11.974;2023-05-16T03:25:06;8.85;;;6.78;;
16957;SDS011;8595;52.542;11.974;2023-05-16T03:27:33;11.45;;;7.45;;
16957;SDS011;8595;52.542;11.974;2023-05-16T03:30:00;12.65;;;6.70;;
16957;SDS011;8595;52.542;11.974;2023-05-16T03:32:27;9.18;;;6.80;;
16957;SDS011;8595;52.542;11.974;2023-05-16T03:34:54;10.07;;;6.65;;
16957;SDS011;8595;52.542;11.974;2023-05-16T03:37:20;9.13;;;6.78;;
16957;SDS011;8595;52.542;11.974;2023-05-16T03:39:48;7.90;;;6.65;;
16957;SDS011;8595;52.542;11.974;2023-05-16T03:42:15;8.90;;;6.47;;
16957;SDS011;8595;52.542;11.974;2023-05-16T03:44:42;10.23;;;6.55;;
16957;SDS011;8595;52.542;11.974;2023-05-16T03:47:10;8.93;;;6.97;;
16957;SDS011;8595;52.542;11.974;2023-05-16T03:49:37;7.80;;;6.28;;
16957;SDS011;8595;52.542;11.974;2023-05-16T03:52:03;11.82;;;6.18;;
16957;SDS011;8595;52.542;11.974;2023-05-16T03:54:30;7.55;;;5.70;;
16957;SDS011;8595;52.542;11.974;2023-05-16T03:56:59;8.77;;;5.82;;
16957;SDS011;8595;52.542;11.974;2023-05-16T03:59:25;8.02;;;5.78;;
16957;SDS011;8595;52.542;11.974;2023-05-16T04:01:52;5.72;;;5.13;;
16957;SDS011;8595;52.542;11.974;2023-05-16T04:04:19;6.45;;;5.72;;
16957;SDS011;8595;52.542;11.974;2023-05-16T04:06:45;7.97;;;6.10;;
16957;SDS011;8595;52.542;11.974;2023-05-16T04:09:12;10.88;;;6.10;;
16957;SDS011;8595;52.542;11.974;2023-05-16T04:11:39;8.93;;;5.80;;
16957;SDS011;8595;52.542;11.974;2023-05-16T04:14:08;7.80;;;5.32;;
16957;SDS011;8595;52.542;11.974;2023-05-16T04:16:35;5.78;;;5.18;;
16957;SDS011;8595;52.542;11.974;2023-05-16T04:19:02;7.22;;;4.97;;
16957;SDS011;8595;52.542;11.974;2023-05-16T04:21:29;11.32;;;5.28;;
16957;SDS011;8595;52.542;11.974;2023-05-16T04:23:56;7.05;;;5.13;;
16957;SDS011;8595;52.542;11.974;2023-05-16T04:26:22;8.20;;;5.20;;
16957;SDS011;8595;52.542;11.974;2023-05-16T04:28:49;9.75;;;5.38;;
16957;SDS011;8595;52.542;11.974;2023-05-16T04:31:18;6.70;;;4.80;;
16957;SDS011;8595;52.542;11.974;2023-05-16T04:33:47;11.93;;;5.20;;
16957;SDS011;8595;52.542;11.974;2023-05-16T04:36:13;7.15;;;5.85;;
16957;SDS011;8595;52.542;11.974;2023-05-16T04:38:40;6.10;;;5.50;;
16957;SDS011;8595;52.542;11.974;2023-05-16T04:41:07;8.23;;;6.47;;
16957;SDS011;8595;52.542;11.974;2023-05-16T04:43:33;13.60;;;6.63;;
16957;SDS011;8595;52.542;11.974;2023-05-16T04:46:00;7.28;;;5.95;;
16957;SDS011;8595;52.542;11.974;2023-05-16T04:48:29;9.27;;;6.88;;
16957;SDS011;8595;52.542;11.974;2023-05-16T04:50:56;14.02;;;10.98;;
16957;SDS011;8595;52.542;11.974;2023-05-16T04:53:22;8.70;;;7.80;;
16957;SDS011;8595;52.542;11.974;2023-05-16T04:55:49;8.45;;;6.63;;
16957;SDS011;8595;52.542;11.974;2023-05-16T04:58:16;7.65;;;6.95;;
16957;SDS011;8595;52.542;11.974;2023-05-16T05:00:43;7.70;;;6.70;;
16957;SDS011;8595;52.542;11.974;2023-05-16T05:03:10;7.10;;;6.40;;
16957;SDS011;8595;52.542;11.974;2023-05-16T05:05:38;9.68;;;7.85;;
16957;SDS011;8595;52.542;11.974;2023-05-16T05:08:05;9.88;;;6.72;;
16957;SDS011;8595;52.542;11.974;2023-05-16T05:10:31;8.30;;;7.07;;
16957;SDS011;8595;52.542;11.974;2023-05-16T05:12:58;7.75;;;7.03;;
16957;SDS011;8595;52.542;11.974;2023-05-16T05:15:25;10.88;;;7.68;;
16957;SDS011;8595;52.542;11.974;2023-05-16T05:17:52;9.70;;;8.30;;
16957;SDS011;8595;52.542;11.974;2023-05-16T05:20:18;7.75;;;6.93;;
16957;SDS011;8595;52.542;11.974;2023-05-16T05:22:47;7.85;;;7.05;;
16957;SDS011;8595;52.542;11.974;2023-05-16T05:25:13;8.82;;;7.22;;
16957;SDS011;8595;52.542;11.974;2023-05-16T05:27:40;10.82;;;7.75;;
16957;SDS011;8595;52.542;11.974;2023-05-16T05:30:07;8.30;;;7.18;;
16957;SDS011;8595;52.542;11.974;2023-05-16T05:32:35;14.15;;;8.40;;
16957;SDS011;8595;52.542;11.974;2023-05-16T05:35:02;7.22;;;6.22;;
16957;SDS011;8595;52.542;11.974;2023-05-16T05:37:29;9.50;;;7.85;;
16957;SDS011;8595;52.542;11.974;2023-05-16T05:39:58;9.43;;;7.93;;
16957;SDS011;8595;52.542;11.974;2023-05-16T05:42:25;11.55;;;8.15;;
16957;SDS011;8595;52.542;11.974;2023-05-16T05:44:52;9.95;;;7.10;;
16957;SDS011;8595;52.542;11.974;2023-05-16T05:47:19;8.43;;;7.45;;
16957;SDS011;8595;52.542;11.974;2023-05-16T05:49:46;9.75;;;8.25;;
16957;SDS011;8595;52.542;11.974;2023-05-16T05:52:13;10.43;;;7.32;;
16957;SDS011;8595;52.542;11.974;2023-05-16T05:54:40;7.80;;;7.00;;
16957;SDS011;8595;52.542;11.974;2023-05-16T05:57:08;9.00;;;7.40;;
16957;SDS011;8595;52.542;11.974;2023-05-16T05:59:35;9.40;;;6.72;;
16957;SDS011;8595;52.542;11.974;2023-05-16T06:02:02;9.50;;;6.68;;
16957;SDS011;8595;52.542;11.974;2023-05-16T06:04:29;9.30;;;7.03;;
16957;SDS011;8595;52.542;11.974;2023-05-16T06:06:56;7.70;;;5.75;;
16957;SDS011;8595;52.542;11.974;2023-05-16T06:09:23;8.43;;;5.85;;
16957;SDS011;8595;52.542;11.974;2023-05-16T06:11:49;8.65;;;5.60;;
16957;SDS011;8595;52.542;11.974;2023-05-16T06:14:18;8.38;;;5.93;;
16957;SDS011;8595;52.542;11.974;2023-05-16T06:16:45;9.68;;;5.55;;
16957;SDS011;8595;52.542;11.974;2023-05-16T06:19:12;9.85;;;5.85;;
16957;SDS011;8595;52.542;11.974;2023-05-16T06:21:40;10.60;;;6.32;;
16957;SDS011;8595;52.542;11.974;2023-05-16T06:24:07;7.07;;;4.90;;
16957;SDS011;8595;52.542;11.974;2023-05-16T06:26:34;6.97;;;4.97;;
16957;SDS011;8595;52.542;11.974;2023-05-16T06:29:01;12.55;;;10.32;;
16957;SDS011;8595;52.542;11.974;2023-05-16T06:31:29;5.68;;;4.38;;
16957;SDS011;8595;52.542;11.974;2023-05-16T06:33:56;4.68;;;3.67;;
16957;SDS011;8595;52.542;11.974;2023-05-16T06:36:23;5.90;;;3.67;;
16957;SDS011;8595;52.542;11.974;2023-05-16T06:38:50;5.88;;;3.70;;
16957;SDS011;8595;52.542;11.974;2023-05-16T06:41:17;5.95;;;4.10;;
16957;SDS011;8595;52.542;11.974;2023-05-16T06:43:44;6.38;;;3.42;;
16957;SDS011;8595;52.542;11.974;2023-05-16T06:46:11;6.40;;;3.80;;
16957;SDS011;8595;52.542;11.974;2023-05-16T06:48:39;5.93;;;3.75;;
16957;SDS011;8595;52.542;11.974;2023-05-16T06:51:05;4.97;;;2.65;;
16957;SDS011;8595;52.542;11.974;2023-05-16T06:53:32;6.70;;;3.33;;
16957;SDS011;8595;52.542;11.974;2023-05-16T06:55:59;5.43;;;3.30;;
16957;SDS011;8595;52.542;11.974;2023-05-16T06:58:26;4.70;;;3.05;;
16957;SDS011;8595;52.542;11.974;2023-05-16T07:00:53;6.35;;;3.33;;
16957;SDS011;8595;52.542;11.974;2023-05-16T07:03:19;3.97;;;2.90;;
16957;SDS011;8595;52.542;11.974;2023-05-16T07:05:47;13.82;;;3.10;;
16957;SDS011;8595;52.542;11.974;2023-05-16T07:08:17;8.70;;;3.75;;
16957;SDS011;8595;52.542;11.974;2023-05-16T07:10:43;6.53;;;3.33;;
16957;SDS011;8595;52.542;11.974;2023-05-16T07:13:10;7.25;;;3.47;;
16957;SDS011;8595;52.542;11.974;2023-05-16T07:15:37;4.63;;;3.10;;
16957;SDS011;8595;52.542;11.974;2023-05-16T07:18:05;8.65;;;3.85;;
16957;SDS011;8595;52.542;11.974;2023-05-16T07:20:31;8.00;;;3.20;;
16957;SDS011;8595;52.542;11.974;2023-05-16T07:22:59;9.00;;;3.20;;
16957;SDS011;8595;52.542;11.974;2023-05-16T07:25:26;11.90;;;3.38;;
16957;SDS011;8595;52.542;11.974;2023-05-16T07:27:54;8.05;;;2.60;;
16957;SDS011;8595;52.542;11.974;2023-05-16T07:30:21;7.75;;;3.22;;
16957;SDS011;8595;52.542;11.974;2023-05-16T07:32:48;10.48;;;3.25;;
16957;SDS011;8595;52.542;11.974;2023-05-16T07:35:15;11.60;;;6.78;;
16957;SDS011;8595;52.542;11.974;2023-05-16T07:37:42;20.77;;;11.43;;
16957;SDS011;8595;52.542;11.974;2023-05-16T07:40:11;8.60;;;3.13;;
16957;SDS011;8595;52.542;11.974;2023-05-16T07:42:39;11.55;;;3.75;;
16957;SDS011;8595;52.542;11.974;2023-05-16T07:45:06;8.20;;;3.03;;
16957;SDS011;8595;52.542;11.974;2023-05-16T07:47:33;11.35;;;3.47;;
16957;SDS011;8595;52.542;11.974;2023-05-16T07:50:00;8.55;;;2.95;;
16957;SDS011;8595;52.542;11.974;2023-05-16T07:52:27;10.77;;;3.17;;
16957;SDS011;8595;52.542;11.974;2023-05-16T07:54:54;10.85;;;3.60;;
16957;SDS011;8595;52.542;11.974;2023-05-16T07:57:22;11.10;;;3.42;;
16957;SDS011;8595;52.542;11.974;2023-05-16T07:59:49;12.35;;;3.72;;
16957;SDS011;8595;52.542;11.974;2023-05-16T08:02:17;14.88;;;5.00;;
16957;SDS011;8595;52.542;11.974;2023-05-16T08:04:43;10.98;;;3.63;;
16957;SDS011;8595;52.542;11.974;2023-05-16T08:07:10;10.05;;;3.58;;
16957;SDS011;8595;52.542;11.974;2023-05-16T08:09:37;16.23;;;3.78;;
16957;SDS011;8595;52.542;11.974;2023-05-16T08:12:04;9.88;;;3.20;;
16957;SDS011;8595;52.542;11.974;2023-05-16T08:14:33;13.27;;;3.80;;
16957;SDS011;8595;52.542;11.974;2023-05-16T08:17:00;15.60;;;3.63;;
16957;SDS011;8595;52.542;11.974;2023-05-16T08:19:27;13.45;;;4.65;;
16957;SDS011;8595;52.542;11.974;2023-05-16T08:21:54;15.20;;;4.15;;
16957;SDS011;8595;52.542;11.974;2023-05-16T08:24:21;15.52;;;4.15;;
16957;SDS011;8595;52.542;11.974;2023-05-16T08:26:48;12.73;;;3.95;;
16957;SDS011;8595;52.542;11.974;2023-05-16T08:29:14;19.55;;;4.93;;
16957;SDS011;8595;52.542;11.974;2023-05-16T08:31:42;16.10;;;4.53;;
16957;SDS011;8595;52.542;11.974;2023-05-16T08:34:09;15.18;;;4.05;;
16957;SDS011;8595;52.542;11.974;2023-05-16T08:36:36;15.20;;;3.63;;
16957;SDS011;8595;52.542;11.974;2023-05-16T08:39:03;16.45;;;4.07;;
16957;SDS011;8595;52.542;11.974;2023-05-16T08:41:31;18.02;;;4.20;;
16957;SDS011;8595;52.542;11.974;2023-05-16T08:43:58;12.50;;;4.35;;
16957;SDS011;8595;52.542;11.974;2023-05-16T08:46:25;12.70;;;4.40;;
16957;SDS011;8595;52.542;11.974;2023-05-16T08:48:57;17.33;;;3.63;;
16957;SDS011;8595;52.542;11.974;2023-05-16T08:51:25;12.10;;;4.05;;
16957;SDS011;8595;52.542;11.974;2023-05-16T08:53:58;17.83;;;4.82;;
16957;SDS011;8595;52.542;11.974;2023-05-16T08:56:28;11.70;;;3.80;;
16957;SDS011;8595;52.542;11.974;2023-05-16T08:58:56;11.40;;;3.67;;
16957;SDS011;8595;52.542;11.974;2023-05-16T09:01:23;7.80;;;3.30;;
16957;SDS011;8595;52.542;11.974;2023-05-16T09:03:50;12.32;;;4.45;;
16957;SDS011;8595;52.542;11.974;2023-05-16T09:06:19;16.35;;;3.60;;
16957;SDS011;8595;52.542;11.974;2023-05-16T09:08:46;9.50;;;3.42;;
16957;SDS011;8595;52.542;11.974;2023-05-16T09:11:13;18.15;;;3.83;;
16957;SDS011;8595;52.542;11.974;2023-05-16T09:13:40;13.75;;;3.70;;
16957;SDS011;8595;52.542;11.974;2023-05-16T09:16:07;9.07;;;3.47;;
16957;SDS011;8595;52.542;11.974;2023-05-16T09:18:34;9.05;;;3.80;;
16957;SDS011;8595;52.542;11.974;2023-05-16T09:21:01;12.88;;;3.30;;
16957;SDS011;8595;52.542;11.974;2023-05-16T09:23:30;11.45;;;2.85;;
16957;SDS011;8595;52.542;11.974;2023-05-16T09:25:58;9.10;;;3.03;;
16957;SDS011;8595;52.542;11.974;2023-05-16T09:28:25;7.80;;;2.55;;
16957;SDS011;8595;52.542;11.974;2023-05-16T09:30:52;9.23;;;2.58;;
16957;SDS011;8595;52.542;11.974;2023-05-16T09:33:21;8.27;;;2.78;;
16957;SDS011;8595;52.542;11.974;2023-05-16T09:35:53;8.73;;;2.40;;
16957;SDS011;8595;52.542;11.974;2023-05-16T09:38:20;6.70;;;2.20;;
16957;SDS011;8595;52.542;11.974;2023-05-16T09:40:49;7.82;;;2.72;;
16957;SDS011;8595;52.542;11.974;2023-05-16T09:43:16;8.00;;;2.42;;
16957;SDS011;8595;52.542;11.974;2023-05-16T09:45:44;10.90;;;3.03;;
16957;SDS011;8595;52.542;11.974;2023-05-16T09:48:12;13.38;;;2.95;;
16957;SDS011;8595;52.542;11.974;2023-05-16T09:50:40;10.60;;;3.80;;
16957;SDS011;8595;52.542;11.974;2023-05-16T09:53:13;10.15;;;3.05;;
16957;SDS011;8595;52.542;11.974;2023-05-16T09:55:40;11.18;;;3.45;;
16957;SDS011;8595;52.542;11.974;2023-05-16T09:58:08;6.97;;;2.88;;
16957;SDS011;8595;52.542;11.974;2023-05-16T10:00:35;5.30;;;2.58;;
16957;SDS011;8595;52.542;11.974;2023-05-16T10:03:03;8.23;;;2.30;;
16957;SDS011;8595;52.542;11.974;2023-05-16T10:05:30;8.68;;;2.90;;
16957;SDS011;8595;52.542;11.974;2023-05-16T10:07:57;10.98;;;2.58;;
16957;SDS011;8595;52.542;11.974;2023-05-16T10:10:24;12.85;;;3.08;;
16957;SDS011;8595;52.542;11.974;2023-05-16T10:12:52;13.45;;;3.00;;
16957;SDS011;8595;52.542;11.974;2023-05-16T10:15:24;8.55;;;2.30;;
16957;SDS011;8595;52.542;11.974;2023-05-16T10:17:53;8.68;;;2.22;;
16957;SDS011;8595;52.542;11.974;2023-05-16T10:20:23;11.65;;;2.22;;
16957;SDS011;8595;52.542;11.974;2023-05-16T10:22:57;7.03;;;2.20;;
16957;SDS011;8595;52.542;11.974;2023-05-16T10:25:25;4.72;;;2.10;;
16957;SDS011;8595;52.542;11.974;2023-05-16T10:27:55;8.57;;;2.25;;
16957;SDS011;8595;52.542;11.974;2023-05-16T10:30:24;11.43;;;2.38;;
16957;SDS011;8595;52.542;11.974;2023-05-16T10:32:51;8.45;;;2.15;;
16957;SDS011;8595;52.542;11.974;2023-05-16T10:35:19;8.23;;;2.30;;
16957;SDS011;8595;52.542;11.974;2023-05-16T10:37:47;9.00;;;2.75;;
16957;SDS011;8595;52.542;11.974;2023-05-16T10:40:15;8.40;;;2.05;;
16957;SDS011;8595;52.542;11.974;2023-05-16T10:42:46;10.18;;;2.25;;
16957;SDS011;8595;52.542;11.974;2023-05-16T10:45:21;12.60;;;2.33;;
16957;SDS011;8595;52.542;11.974;2023-05-16T10:47:52;7.88;;;2.20;;
16957;SDS011;8595;52.542;11.974;2023-05-16T10:50:32;6.57;;;2.13;;
16957;SDS011;8595;52.542;11.974;2023-05-16T10:56:09;7.38;;;2.40;;
16957;SDS011;8595;52.542;11.974;2023-05-16T10:58:42;10.68;;;2.55;;
16957;SDS011;8595;52.542;11.974;2023-05-16T11:01:14;8.10;;;2.10;;
16957;SDS011;8595;52.542;11.974;2023-05-16T11:06:45;7.35;;;1.92;;
16957;SDS011;8595;52.542;11.974;2023-05-16T11:09:17;9.27;;;3.50;;
16957;SDS011;8595;52.542;11.974;2023-05-16T11:11:47;10.52;;;6.45;;
16957;SDS011;8595;52.542;11.974;2023-05-16T11:14:24;7.03;;;2.20;;
16957;SDS011;8595;52.542;11.974;2023-05-16T11:16:58;4.68;;;2.05;;
16957;SDS011;8595;52.542;11.974;2023-05-16T11:19:32;8.70;;;1.85;;
16957;SDS011;8595;52.542;11.974;2023-05-16T11:22:16;5.95;;;1.98;;
16957;SDS011;8595;52.542;11.974;2023-05-16T11:24:51;3.97;;;1.60;;
16957;SDS011;8595;52.542;11.974;2023-05-16T11:27:21;7.70;;;2.60;;
16957;SDS011;8595;52.542;11.974;2023-05-16T11:29:49;6.03;;;1.90;;
16957;SDS011;8595;52.542;11.974;2023-05-16T11:32:20;4.95;;;1.60;;
16957;SDS011;8595;52.542;11.974;2023-05-16T11:34:49;6.38;;;2.15;;
16957;SDS011;8595;52.542;11.974;2023-05-16T11:37:16;5.15;;;1.60;;
16957;SDS011;8595;52.542;11.974;2023-05-16T11:39:45;6.30;;;2.28;;
16957;SDS011;8595;52.542;11.974;2023-05-16T11:42:12;5.82;;;2.15;;
16957;SDS011;8595;52.542;11.974;2023-05-16T11:44:39;5.80;;;2.10;;
16957;SDS011;8595;52.542;11.974;2023-05-16T11:47:07;3.90;;;1.67;;
16957;SDS011;8595;52.542;11.974;2023-05-16T11:49:34;3.33;;;1.50;;
16957;SDS011;8595;52.542;11.974;2023-05-16T11:52:02;4.93;;;1.55;;
16957;SDS011;8595;52.542;11.974;2023-05-16T11:54:30;11.75;;;2.20;;
16957;SDS011;8595;52.542;11.974;2023-05-16T11:56:58;6.07;;;1.65;;
16957;SDS011;8595;52.542;11.974;2023-05-16T11:59:26;9.27;;;2.30;;
16957;SDS011;8595;52.542;11.974;2023-05-16T12:01:52;7.75;;;2.30;;
16957;SDS011;8595;52.542;11.974;2023-05-16T12:04:19;9.02;;;3.40;;
16957;SDS011;8595;52.542;11.974;2023-05-16T12:06:56;9.10;;;5.10;;
16957;SDS011;8595;52.542;11.974;2023-05-16T12:09:26;5.20;;;1.42;;
16957;SDS011;8595;52.542;11.974;2023-05-16T12:11:53;5.55;;;1.70;;
16957;SDS011;8595;52.542;11.974;2023-05-16T12:14:20;9.82;;;2.78;;
16957;SDS011;8595;52.542;11.974;2023-05-16T12:16:50;5.63;;;1.67;;
16957;SDS011;8595;52.542;11.974;2023-05-16T12:19:18;4.07;;;1.80;;
16957;SDS011;8595;52.542;11.974;2023-05-16T12:21:46;6.82;;;1.73;;
16957;SDS011;8595;52.542;11.974;2023-05-16T12:24:13;4.32;;;1.73;;
16957;SDS011;8595;52.542;11.974;2023-05-16T12:26:43;8.80;;;1.80;;
16957;SDS011;8595;52.542;11.974;2023-05-16T12:29:09;5.28;;;2.03;;
16957;SDS011;8595;52.542;11.974;2023-05-16T12:31:37;5.18;;;1.92;;
16957;SDS011;8595;52.542;11.974;2023-05-16T12:34:15;7.03;;;1.20;;
16957;SDS011;8595;52.542;11.974;2023-05-16T12:36:44;7.22;;;1.42;;
16957;SDS011;8595;52.542;11.974;2023-05-16T12:39:15;3.80;;;1.77;;
16957;SDS011;8595;52.542;11.974;2023-05-16T12:41:43;4.55;;;1.83;;
16957;SDS011;8595;52.542;11.974;2023-05-16T12:44:11;3.63;;;1.50;;
16957;SDS011;8595;52.542;11.974;2023-05-16T12:46:42;5.35;;;1.55;;
16957;SDS011;8595;52.542;11.974;2023-05-16T12:49:09;4.80;;;2.38;;
16957;SDS011;8595;52.542;11.974;2023-05-16T12:51:36;6.57;;;1.63;;
16957;SDS011;8595;52.542;11.974;2023-05-16T12:54:07;6.32;;;1.60;;
16957;SDS011;8595;52.542;11.974;2023-05-16T12:56:36;12.38;;;2.67;;
16957;SDS011;8595;52.542;11.974;2023-05-16T12:59:04;6.15;;;1.70;;
16957;SDS011;8595;52.542;11.974;2023-05-16T13:01:31;5.65;;;1.52;;
16957;SDS011;8595;52.542;11.974;2023-05-16T13:03:58;3.38;;;1.30;;
16957;SDS011;8595;52.542;11.974;2023-05-16T13:06:25;3.92;;;1.65;;
16957;SDS011;8595;52.542;11.974;2023-05-16T13:08:52;3.40;;;1.17;;
16957;SDS011;8595;52.542;11.974;2023-05-16T13:11:19;5.63;;;1.67;;
16957;SDS011;8595;52.542;11.974;2023-05-16T13:13:46;4.80;;;1.52;;
16957;SDS011;8595;52.542;11.974;2023-05-16T13:16:15;3.60;;;1.60;;
16957;SDS011;8595;52.542;11.974;2023-05-16T13:18:43;3.58;;;1.50;;
16957;SDS011;8595;52.542;11.974;2023-05-16T13:21:10;4.22;;;1.50;;
16957;SDS011;8595;52.542;11.974;2023-05-16T13:23:37;5.93;;;1.45;;
16957;SDS011;8595;52.542;11.974;2023-05-16T13:26:04;3.75;;;1.58;;
16957;SDS011;8595;52.542;11.974;2023-05-16T13:28:31;4.38;;;1.70;;
16957;SDS011;8595;52.542;11.974;2023-05-16T13:30:58;4.22;;;1.98;;
16957;SDS011;8595;52.542;11.974;2023-05-16T13:33:26;4.10;;;1.73;;
16957;SDS011;8595;52.542;11.974;2023-05-16T13:35:53;10.18;;;1.90;;
16957;SDS011;8595;52.542;11.974;2023-05-16T13:38:20;4.70;;;2.10;;
16957;SDS011;8595;52.542;11.974;2023-05-16T13:40:47;5.03;;;1.65;;
16957;SDS011;8595;52.542;11.974;2023-05-16T13:43:14;3.65;;;1.70;;
16957;SDS011;8595;52.542;11.974;2023-05-16T13:45:40;3.60;;;1.20;;
16957;SDS011;8595;52.542;11.974;2023-05-16T13:48:08;5.97;;;1.80;;
16957;SDS011;8595;52.542;11.974;2023-05-16T13:50:36;5.47;;;1.15;;
16957;SDS011;8595;52.542;11.974;2023-05-16T13:53:03;2.72;;;1.70;;
16957;SDS011;8595;52.542;11.974;2023-05-16T13:55:30;4.10;;;1.42;;
16957;SDS011;8595;52.542;11.974;2023-05-16T13:57:57;4.32;;;1.40;;
16957;SDS011;8595;52.542;11.974;2023-05-16T14:00:25;4.30;;;1.38;;
16957;SDS011;8595;52.542;11.974;2023-05-16T14:02:52;4.53;;;1.60;;
16957;SDS011;8595;52.542;11.974;2023-05-16T14:05:18;3.63;;;1.90;;
16957;SDS011;8595;52.542;11.974;2023-05-16T14:07:46;3.63;;;1.02;;
16957;SDS011;8595;52.542;11.974;2023-05-16T14:10:13;3.45;;;1.52;;
16957;SDS011;8595;52.542;11.974;2023-05-16T14:12:40;3.78;;;1.42;;
16957;SDS011;8595;52.542;11.974;2023-05-16T14:15:07;7.63;;;4.55;;
16957;SDS011;8595;52.542;11.974;2023-05-16T14:17:35;3.63;;;1.52;;
16957;SDS011;8595;52.542;11.974;2023-05-16T14:20:02;4.85;;;1.60;;
16957;SDS011;8595;52.542;11.974;2023-05-16T14:22:32;5.00;;;1.35;;
16957;SDS011;8595;52.542;11.974;2023-05-16T14:25:00;3.25;;;1.60;;
16957;SDS011;8595;52.542;11.974;2023-05-16T14:27:27;6.80;;;1.73;;
16957;SDS011;8595;52.542;11.974;2023-05-16T14:29:54;3.13;;;1.60;;
16957;SDS011;8595;52.542;11.974;2023-05-16T14:32:21;5.28;;;1.95;;
16957;SDS011;8595;52.542;11.974;2023-05-16T14:34:48;2.72;;;1.60;;
16957;SDS011;8595;52.542;11.974;2023-05-16T14:37:15;5.80;;;1.63;;
16957;SDS011;8595;52.542;11.974;2023-05-16T14:39:43;3.22;;;1.58;;
16957;SDS011;8595;52.542;11.974;2023-05-16T14:42:11;5.72;;;2.38;;
16957;SDS011;8595;52.542;11.974;2023-05-16T14:44:38;4.93;;;2.10;;
16957;SDS011;8595;52.542;11.974;2023-05-16T14:47:05;3.97;;;2.03;;
16957;SDS011;8595;52.542;11.974;2023-05-16T14:49:32;3.90;;;1.67;;
16957;SDS011;8595;52.542;11.974;2023-05-16T14:51:59;2.88;;;1.50;;